Terminal Aerodrome Forecast
Issued by NWS Wakefield, VA

Home | Current Version | Previous Version | Text Only | Print | Product List | Glossary On
Versions: 1 2 3 4 5 6 7 8 9 10 11 12 13 14 15
000
FTUS41 KAKQ 291724
TAFRIC
TAF
KRIC 291724Z 2918/3018 31008G17KT P6SM SKC
     FM292200 20007KT P6SM SKC
     FM300900 21010KT P6SM OVC100
     FM301100 24008KT P6SM -RA OVC050
     FM301500 24013KT P6SM BKN050=

USA.gov is the U.S. government's official web portal to all federal, state and local government web resources and services.